< < Back
Terminal Aerodrome Forecast


Current Version              Previous Versions:   1  2  3  4  5  6  7  8  9  

Terminal Aerodrome Forecast

470
FTUS42 KTAE 232000 AAB
TAFDHN
TAF AMD
KDHN 232003Z 2320/2418 26015G25KT 4SM -RA BR VCTS SCT015 OVC030CB
     FM240000 20011KT 4SM BR OVC007
     FM240600 20010KT 2SM BR OVC004
     FM241500 25013G20KT P6SM SCT015=



Latest METAR

598
SAUS70 KWBC 232300 RRW
MTRDHN
METAR KDHN 232353Z 21014G19KT 10SM OVC010 18/17 A2978 RMK AO2 CIG
007V014 SLP082 60045 T01830172 10228 20172 55001


USA.gov is the U.S. government's official web portal to all federal, state and local government web resources and services.